createdAt,value
2019-02-07T00:01:31.814Z,99.90
2019-02-07T00:04:02.014Z,99.90
2019-02-07T00:06:32.469Z,99.90
2019-02-07T00:09:02.958Z,99.90
2019-02-07T00:11:33.210Z,99.90
2019-02-07T00:14:03.655Z,99.90
2019-02-07T00:16:33.885Z,99.90
2019-02-07T00:19:04.107Z,99.90
2019-02-07T00:21:34.369Z,99.90
2019-02-07T00:24:04.589Z,99.90
2019-02-07T00:26:35.101Z,99.90
2019-02-07T00:29:05.502Z,99.90
2019-02-07T00:31:35.935Z,99.90
2019-02-07T00:34:06.466Z,99.90
2019-02-07T00:36:36.670Z,99.90
2019-02-07T00:39:08.102Z,99.90
2019-02-07T00:41:38.735Z,99.90
2019-02-07T00:44:09.038Z,99.90
2019-02-07T00:46:39.479Z,99.90
2019-02-07T00:49:09.942Z,99.90
2019-02-07T00:51:40.382Z,99.90
2019-02-07T00:54:10.606Z,99.90
2019-02-07T00:56:41.040Z,99.90
2019-02-07T00:59:11.507Z,99.90
2019-02-07T01:01:41.689Z,99.90
2019-02-07T01:04:11.910Z,99.90
2019-02-07T01:06:42.105Z,99.90
2019-02-07T01:09:12.793Z,99.90
2019-02-07T01:11:43.209Z,99.90
2019-02-07T01:14:13.581Z,99.90
2019-02-07T01:16:43.801Z,99.90
2019-02-07T01:19:14.083Z,99.90
2019-02-07T01:21:44.289Z,99.90
2019-02-07T01:24:14.810Z,99.90
2019-02-07T01:26:45.018Z,99.90
2019-02-07T01:29:15.482Z,99.90
2019-02-07T01:31:45.709Z,99.90
2019-02-07T01:34:15.907Z,99.90
2019-02-07T01:36:46.652Z,99.90
2019-02-07T01:39:17.087Z,99.90
2019-02-07T01:41:47.318Z,99.90
2019-02-07T01:44:17.523Z,99.90
2019-02-07T01:46:47.985Z,99.90
2019-02-07T01:49:18.412Z,99.90
2019-02-07T01:51:48.642Z,99.90
2019-02-07T01:54:18.919Z,99.90
2019-02-07T01:56:49.228Z,99.90
2019-02-07T01:59:19.423Z,99.90
2019-02-07T02:01:49.903Z,99.90
2019-02-07T02:04:20.778Z,99.90
2019-02-07T02:06:51.247Z,99.90
2019-02-07T02:09:21.447Z,99.90
2019-02-07T02:11:51.670Z,99.90
2019-02-07T02:14:21.870Z,99.90
2019-02-07T02:16:52.322Z,99.90
2019-02-07T02:19:22.759Z,99.90
2019-02-07T02:21:53.218Z,99.90
2019-02-07T02:24:23.419Z,99.90
2019-02-07T02:26:53.657Z,99.90
2019-02-07T02:29:24.094Z,99.90
2019-02-07T02:31:54.613Z,99.90
2019-02-07T02:34:24.801Z,99.90
2019-02-07T02:36:55.095Z,99.90
2019-02-07T02:39:25.525Z,99.90
2019-02-07T02:41:55.759Z,99.90
2019-02-07T02:44:25.954Z,99.90
2019-02-07T02:46:56.471Z,99.90
2019-02-07T02:49:26.768Z,99.90
2019-02-07T02:51:57.294Z,99.90
2019-02-07T02:54:32.163Z,99.90
2019-02-07T02:57:02.762Z,99.90
2019-02-07T02:59:33.641Z,99.90
2019-02-07T03:02:05.754Z,99.90
2019-02-07T03:04:37.822Z,99.90
2019-02-07T03:07:09.745Z,99.90
2019-02-07T03:09:41.903Z,99.90
2019-02-07T03:12:22.993Z,99.90
2019-02-07T03:15:10.946Z,99.90
2019-02-07T03:17:59.054Z,99.90
2019-02-07T03:20:30.910Z,99.90
2019-02-07T03:23:08.359Z,99.90
2019-02-07T03:25:45.986Z,99.90
2019-02-07T03:28:32.453Z,99.90
2019-02-07T03:31:22.045Z,99.90
2019-02-07T03:33:54.102Z,99.90
2019-02-07T03:36:26.147Z,99.90
2019-02-07T03:39:07.037Z,99.90
2019-02-07T03:41:39.206Z,99.90
2019-02-07T03:44:22.996Z,99.90
2019-02-07T03:47:11.144Z,99.90
2019-02-07T03:49:42.981Z,99.90
2019-02-07T03:52:20.909Z,99.90
2019-02-07T03:54:58.530Z,99.90
2019-02-07T03:57:30.595Z,99.90
2019-02-07T04:00:11.259Z,99.90
2019-02-07T04:02:52.626Z,99.90
2019-02-07T04:05:24.454Z,99.90
2019-02-07T04:08:14.395Z,99.90
2019-02-07T04:11:02.281Z,99.90
2019-02-07T04:13:45.967Z,99.90
2019-02-07T04:16:17.825Z,99.90
2019-02-07T04:18:49.665Z,99.90
2019-02-07T04:21:21.534Z,99.90
2019-02-07T04:23:59.139Z,99.90
2019-02-07T04:26:39.459Z,99.90
2019-02-07T04:29:27.278Z,99.90
2019-02-07T04:31:59.147Z,99.90
2019-02-07T04:34:43.211Z,99.90
2019-02-07T04:37:20.542Z,99.90
2019-02-07T04:39:52.629Z,99.90
2019-02-07T04:42:27.367Z,99.90
2019-02-07T04:45:08.353Z,99.90
2019-02-07T04:47:40.211Z,99.90
2019-02-07T04:50:21.834Z,99.90
2019-02-07T04:52:53.909Z,99.90
2019-02-07T04:55:26.043Z,99.90
2019-02-07T04:58:06.822Z,99.90
2019-02-07T05:00:38.696Z,99.90
2019-02-07T05:03:10.623Z,99.90
2019-02-07T05:05:58.458Z,99.90
2019-02-07T05:08:47.881Z,99.90
2019-02-07T05:11:25.786Z,99.90
2019-02-07T05:14:13.453Z,99.90
2019-02-07T05:16:54.015Z,99.90
2019-02-07T05:19:34.586Z,99.90
2019-02-07T05:22:22.698Z,99.90
2019-02-07T05:25:11.023Z,99.90
2019-02-07T05:27:42.848Z,99.90
2019-02-07T05:30:19.055Z,99.90
2019-02-07T05:33:08.435Z,99.90
2019-02-07T05:35:43.561Z,99.90
2019-02-07T05:38:33.230Z,99.90
2019-02-07T05:41:14.089Z,99.90
2019-02-07T05:44:02.559Z,99.90
2019-02-07T05:46:51.322Z,99.90
2019-02-07T05:49:40.802Z,99.90
2019-02-07T05:52:15.345Z,99.90
2019-02-07T05:55:02.242Z,99.90
2019-02-07T05:57:40.127Z,99.90
2019-02-07T06:00:13.498Z,99.90
2019-02-07T06:02:48.382Z,99.90
2019-02-07T06:05:26.252Z,99.90
2019-02-07T06:08:06.661Z,99.90
2019-02-07T06:10:38.728Z,99.90
2019-02-07T06:13:28.593Z,99.90
2019-02-07T06:16:15.311Z,99.90
2019-02-07T06:19:04.978Z,99.90
2019-02-07T06:21:37.156Z,99.90
2019-02-07T06:24:09.187Z,99.90
2019-02-07T06:26:41.541Z,99.90
2019-02-07T06:29:13.384Z,99.90
2019-02-07T06:32:00.295Z,99.90
2019-02-07T06:34:47.208Z,99.90
2019-02-07T06:37:19.064Z,99.90
2019-02-07T06:39:50.910Z,99.90
2019-02-07T06:42:31.783Z,99.90
2019-02-07T06:45:19.815Z,99.90
2019-02-07T06:48:09.751Z,99.90
2019-02-07T06:50:41.612Z,99.90
2019-02-07T06:53:23.640Z,99.90
2019-02-07T06:56:11.359Z,99.90
2019-02-07T06:58:55.059Z,99.90
2019-02-07T07:01:37.982Z,99.90
2019-02-07T07:04:18.121Z,99.90
2019-02-07T07:07:00.270Z,99.90
2019-02-07T07:09:48.886Z,99.90
2019-02-07T07:12:26.491Z,99.90
2019-02-07T07:15:14.333Z,99.90
2019-02-07T07:17:50.475Z,99.90
2019-02-07T07:20:37.219Z,99.90
2019-02-07T07:23:18.458Z,99.90
2019-02-07T07:25:56.498Z,99.90
2019-02-07T07:28:43.654Z,99.90
2019-02-07T07:31:19.148Z,99.90
2019-02-07T07:33:52.063Z,99.90
2019-02-07T07:36:39.335Z,99.90
2019-02-07T07:39:20.802Z,99.90
2019-02-07T07:42:02.683Z,99.90
2019-02-07T07:44:46.411Z,99.90
2019-02-07T07:47:36.223Z,99.90
2019-02-07T07:50:20.055Z,99.90
2019-02-07T07:53:08.119Z,99.90
2019-02-07T07:55:49.074Z,99.90
2019-02-07T07:58:33.230Z,99.90
2019-02-07T08:01:14.122Z,99.90
2019-02-07T08:03:49.495Z,99.90
2019-02-07T08:06:21.583Z,99.90
2019-02-07T08:08:56.067Z,99.90
2019-02-07T08:11:36.855Z,99.90
2019-02-07T08:14:14.576Z,99.90
2019-02-07T08:16:49.922Z,99.90
2019-02-07T08:19:22.406Z,99.90
2019-02-07T08:22:00.530Z,99.90
2019-02-07T08:24:41.893Z,99.90
2019-02-07T08:27:13.830Z,99.90
2019-02-07T08:29:45.891Z,99.90
2019-02-07T08:32:18.936Z,99.90
2019-02-07T08:34:51.004Z,99.90
2019-02-07T08:37:41.091Z,99.90
2019-02-07T08:40:30.551Z,99.90
2019-02-07T08:43:05.487Z,99.90
2019-02-07T08:45:53.194Z,99.90
2019-02-07T08:48:26.130Z,99.90
2019-02-07T08:51:07.591Z,99.90
2019-02-07T08:53:56.499Z,99.90
2019-02-07T08:56:40.624Z,99.90
2019-02-07T08:59:27.809Z,99.90
2019-02-07T09:02:09.191Z,99.90
2019-02-07T09:04:59.693Z,99.90
2019-02-07T09:07:38.017Z,99.90
2019-02-07T09:10:22.866Z,99.90
2019-02-07T09:13:11.779Z,99.90
2019-02-07T09:15:47.182Z,99.90
2019-02-07T09:18:31.462Z,99.90
2019-02-07T09:21:19.884Z,99.90
2019-02-07T09:24:03.934Z,99.90
2019-02-07T09:26:52.348Z,99.90
2019-02-07T09:29:29.855Z,99.90
2019-02-07T09:32:05.441Z,99.90
2019-02-07T09:34:46.929Z,99.90
2019-02-07T09:37:31.158Z,99.90
2019-02-07T09:40:09.607Z,99.90
2019-02-07T09:42:42.110Z,99.90
2019-02-07T09:45:33.377Z,99.90
2019-02-07T09:48:22.075Z,99.90
2019-02-07T09:50:57.198Z,99.90
2019-02-07T09:53:29.623Z,99.90
2019-02-07T09:56:08.389Z,99.90
2019-02-07T09:58:46.856Z,99.90
2019-02-07T10:01:22.014Z,99.90
2019-02-07T10:03:54.494Z,99.90
2019-02-07T10:06:29.855Z,99.90
2019-02-07T10:09:08.585Z,99.90
2019-02-07T10:11:52.948Z,99.90
2019-02-07T10:14:25.738Z,99.90
2019-02-07T10:17:07.277Z,99.90
2019-02-07T10:19:51.487Z,99.90
2019-02-07T10:22:35.475Z,99.90
2019-02-07T10:25:23.959Z,99.90
2019-02-07T10:28:02.050Z,99.90
2019-02-07T10:30:37.646Z,99.90
2019-02-07T10:33:10.744Z,99.90
2019-02-07T10:35:49.330Z,99.90
2019-02-07T10:38:23.327Z,99.90
2019-02-07T10:40:55.998Z,99.90
2019-02-07T10:43:28.664Z,99.90
2019-02-07T10:46:03.934Z,99.90
2019-02-07T10:48:52.578Z,99.90
2019-02-07T10:51:42.990Z,99.90
2019-02-07T10:54:18.583Z,99.90
2019-02-07T10:56:51.232Z,99.90
2019-02-07T10:59:23.721Z,99.90
2019-02-07T11:02:02.237Z,99.90
2019-02-07T11:04:52.848Z,99.90
2019-02-07T11:07:41.821Z,99.90
2019-02-07T11:10:16.290Z,99.90
2019-02-07T11:12:51.664Z,99.90
2019-02-07T11:15:24.092Z,99.90
2019-02-07T11:17:59.217Z,99.90
2019-02-07T11:20:37.847Z,99.90
2019-02-07T11:23:19.038Z,99.90
2019-02-07T11:26:03.295Z,99.90
2019-02-07T11:28:38.626Z,99.90
2019-02-07T11:31:13.834Z,99.90
2019-02-07T11:33:55.236Z,99.90
2019-02-07T11:36:27.910Z,99.90
2019-02-07T11:39:15.778Z,99.90
2019-02-07T11:41:48.270Z,99.90
2019-02-07T11:44:20.953Z,99.90
2019-02-07T11:47:18.734Z,99.90
2019-02-07T11:49:56.107Z,99.90
2019-02-07T11:52:44.590Z,99.50
2019-02-07T11:55:17.238Z,99.90
2019-02-07T11:58:05.622Z,99.70
2019-02-07T12:00:40.479Z,99.90
2019-02-07T12:03:19.086Z,99.90
2019-02-07T12:05:51.748Z,99.90
2019-02-07T12:08:30.186Z,99.90
2019-02-07T12:11:11.535Z,99.90
2019-02-07T12:13:50.103Z,99.70
2019-02-07T12:16:22.519Z,99.40
2019-02-07T12:18:57.671Z,99.90
2019-02-07T12:21:35.988Z,99.80
2019-02-07T12:24:08.507Z,99.90
2019-02-07T12:26:56.965Z,99.90
2019-02-07T12:29:29.405Z,99.50
2019-02-07T12:32:01.878Z,99.90
2019-02-07T12:34:34.306Z,99.90
2019-02-07T12:37:09.530Z,99.40
2019-02-07T12:39:47.975Z,99.90
2019-02-07T12:42:36.383Z,99.50
2019-02-07T12:45:27.145Z,98.00
2019-02-07T12:48:17.192Z,98.40
2019-02-07T12:50:49.652Z,98.80
2019-02-07T12:53:25.066Z,98.30
2019-02-07T12:56:00.683Z,98.20
2019-02-07T12:58:33.085Z,97.80
2019-02-07T13:01:09.440Z,97.80
2019-02-07T13:03:44.565Z,97.60
2019-02-07T13:06:17.247Z,98.50
2019-02-07T13:08:52.811Z,97.80
2019-02-07T13:11:41.243Z,98.40
2019-02-07T13:14:13.685Z,97.90
2019-02-07T13:16:49.550Z,97.80
2019-02-07T13:19:40.264Z,97.80
2019-02-07T13:22:15.337Z,97.40
2019-02-07T13:25:04.441Z,97.20
2019-02-07T13:27:36.957Z,97.00
2019-02-07T13:30:24.723Z,97.60
2019-02-07T13:33:09.701Z,98.20
2019-02-07T13:36:00.540Z,97.70
2019-02-07T13:38:36.049Z,97.70
2019-02-07T13:41:14.158Z,98.20
2019-02-07T13:43:55.559Z,98.20
2019-02-07T13:46:34.158Z,97.80
2019-02-07T13:49:21.577Z,96.60
2019-02-07T13:51:53.978Z,96.80
2019-02-07T13:54:32.338Z,97.40
2019-02-07T13:57:20.718Z,97.00
2019-02-07T13:59:58.847Z,97.30
2019-02-07T14:02:42.754Z,96.70
2019-02-07T14:05:17.293Z,96.50
2019-02-07T14:07:49.701Z,96.40
2019-02-07T14:10:22.518Z,96.20
2019-02-07T14:12:57.409Z,96.00
2019-02-07T14:15:29.838Z,96.30
2019-02-07T14:18:08.041Z,96.80
2019-02-07T14:20:56.475Z,97.20
2019-02-07T14:23:34.991Z,97.20
2019-02-07T14:26:25.551Z,97.00
2019-02-07T14:29:06.787Z,97.00
2019-02-07T14:31:45.491Z,96.30
2019-02-07T14:34:18.122Z,96.10
2019-02-07T14:36:50.784Z,96.50
2019-02-07T14:39:37.427Z,96.30
2019-02-07T14:42:16.710Z,95.90
2019-02-07T14:44:49.202Z,96.10
2019-02-07T14:47:20.601Z,96.50
2019-02-07T14:49:51.369Z,96.30
2019-02-07T14:52:22.390Z,96.40
2019-02-07T14:54:53.383Z,96.90
2019-02-07T14:57:24.177Z,97.20
2019-02-07T14:59:54.942Z,97.40
2019-02-07T15:02:25.989Z,97.10
2019-02-07T15:04:56.990Z,97.60
2019-02-07T15:07:27.855Z,96.70
2019-02-07T15:09:58.625Z,96.80
2019-02-07T15:12:29.646Z,97.00
2019-02-07T15:15:00.575Z,96.60
2019-02-07T15:17:31.367Z,97.30
2019-02-07T15:20:02.388Z,97.40
2019-02-07T15:22:33.186Z,96.90
2019-02-07T15:25:05.209Z,96.80
2019-02-07T15:27:36.637Z,97.00
2019-02-07T15:30:13.647Z,96.60
2019-02-07T15:32:44.716Z,95.80
2019-02-07T15:35:21.594Z,96.70
2019-02-07T15:37:52.390Z,96.80
2019-02-07T15:40:25.764Z,97.30
2019-02-07T15:42:57.042Z,96.80
2019-02-07T15:45:28.478Z,96.60
2019-02-07T15:47:59.669Z,96.60
2019-02-07T15:50:37.549Z,97.30
2019-02-07T15:53:04.778Z,97.60
2019-02-07T15:55:35.554Z,97.30
2019-02-07T15:58:06.628Z,97.60
2019-02-07T16:00:44.990Z,97.70
2019-02-07T16:03:17.841Z,97.70
2019-02-07T16:05:48.861Z,97.70
2019-02-07T16:08:19.944Z,97.80
2019-02-07T16:10:51.127Z,97.90
2019-02-07T16:13:22.115Z,98.10
2019-02-07T16:15:53.281Z,98.20
2019-02-07T16:18:24.052Z,98.50
2019-02-07T16:20:54.833Z,98.80
2019-02-07T16:23:25.838Z,99.30
2019-02-07T16:25:56.859Z,99.10
2019-02-07T16:28:27.622Z,99.30
2019-02-07T16:30:58.410Z,98.80
2019-02-07T16:33:29.428Z,98.90
2019-02-07T16:36:00.209Z,99.00
2019-02-07T16:38:31.026Z,98.90
2019-02-07T16:41:02.034Z,99.10
2019-02-07T16:43:33.259Z,98.90
2019-02-07T16:46:04.487Z,99.10
2019-02-07T16:48:35.523Z,99.10
2019-02-07T16:51:06.652Z,99.50
2019-02-07T16:53:37.441Z,99.40
2019-02-07T16:56:08.375Z,99.50
2019-02-07T16:58:39.159Z,99.80
2019-02-07T17:01:09.998Z,99.90
2019-02-07T17:03:40.877Z,99.90
2019-02-07T17:06:11.708Z,99.90
2019-02-07T17:08:43.101Z,99.90
2019-02-07T17:11:14.086Z,99.90
2019-02-07T17:13:44.875Z,99.90
2019-02-07T17:16:16.006Z,99.90
2019-02-07T17:18:46.806Z,99.90
2019-02-07T17:21:17.911Z,99.90
2019-02-07T17:23:48.747Z,99.90
2019-02-07T17:26:19.711Z,99.90
2019-02-07T17:28:50.662Z,99.90
2019-02-07T17:31:21.499Z,99.90
2019-02-07T17:33:52.572Z,99.90
2019-02-07T17:36:23.428Z,99.90
2019-02-07T17:38:54.439Z,99.90
2019-02-07T17:41:25.255Z,99.90
2019-02-07T17:43:56.274Z,99.90
2019-02-07T17:46:27.258Z,99.90
2019-02-07T17:48:58.344Z,99.90
2019-02-07T17:51:29.497Z,99.90
2019-02-07T17:54:00.275Z,99.90
2019-02-07T17:56:31.047Z,99.90
2019-02-07T17:59:01.834Z,99.90
2019-02-07T18:01:32.652Z,99.90
2019-02-07T18:04:03.772Z,99.90
2019-02-07T18:06:34.623Z,99.90
2019-02-07T18:09:07.726Z,99.90
2019-02-07T18:11:38.555Z,99.90
2019-02-07T18:14:09.339Z,99.90
2019-02-07T18:16:40.353Z,99.90
2019-02-07T18:19:25.193Z,99.90
2019-02-07T18:21:57.322Z,99.90
2019-02-07T18:24:28.198Z,99.90
2019-02-07T18:26:59.471Z,99.90
2019-02-07T18:29:30.261Z,99.90
2019-02-07T18:32:01.022Z,99.90
2019-02-07T18:34:32.058Z,99.90
2019-02-07T18:37:03.074Z,99.90
2019-02-07T18:39:33.863Z,99.90
2019-02-07T18:42:04.708Z,99.90
2019-02-07T18:44:35.732Z,99.90
2019-02-07T18:47:06.536Z,99.90
2019-02-07T18:49:37.303Z,99.90
2019-02-07T18:52:08.094Z,99.90
2019-02-07T18:54:39.137Z,99.90
2019-02-07T18:57:10.158Z,99.90
2019-02-07T18:59:40.915Z,99.90
2019-02-07T19:02:11.950Z,99.90
2019-02-07T19:04:42.953Z,99.90
2019-02-07T19:07:14.141Z,99.90
2019-02-07T19:09:46.280Z,99.90
2019-02-07T19:12:17.507Z,99.90
2019-02-07T19:14:48.514Z,99.90
2019-02-07T19:17:19.319Z,99.90
2019-02-07T19:19:50.084Z,99.90
2019-02-07T19:22:20.877Z,99.90
2019-02-07T19:24:51.639Z,99.90
2019-02-07T19:27:22.675Z,99.90
2019-02-07T19:29:52.861Z,99.90
2019-02-07T19:32:23.658Z,99.90
2019-02-07T19:34:54.847Z,99.90
2019-02-07T19:37:25.626Z,99.90
2019-02-07T19:39:56.627Z,99.90
2019-02-07T19:42:27.410Z,99.90
2019-02-07T19:44:58.178Z,99.90
2019-02-07T19:47:28.962Z,99.90
2019-02-07T19:49:59.754Z,99.90
2019-02-07T19:52:30.746Z,99.90
2019-02-07T19:55:01.210Z,99.90
2019-02-07T19:57:32.212Z,99.90
2019-02-07T20:00:02.683Z,99.90
2019-02-07T20:02:33.155Z,99.90
2019-02-07T20:05:03.675Z,99.90
2019-02-07T20:07:34.108Z,99.90
2019-02-07T20:10:13.265Z,99.90
2019-02-07T20:12:43.783Z,99.90
2019-02-07T20:15:25.958Z,99.90
2019-02-07T20:17:56.174Z,99.90
2019-02-07T20:20:27.066Z,99.90
2019-02-07T20:22:57.950Z,99.90
2019-02-07T20:25:28.847Z,99.90
2019-02-07T20:28:00.795Z,99.90
2019-02-07T20:30:42.624Z,99.90
2019-02-07T20:33:14.979Z,99.90
2019-02-07T20:35:48.318Z,99.90
2019-02-07T20:38:21.454Z,99.90
2019-02-07T20:40:57.004Z,99.90
2019-02-07T20:43:28.639Z,99.90
2019-02-07T20:46:00.822Z,99.90
2019-02-07T20:48:32.778Z,99.90
2019-02-07T20:51:05.757Z,99.90
2019-02-07T20:53:37.404Z,99.90
2019-02-07T20:56:09.003Z,99.90
2019-02-07T20:58:41.095Z,99.90
2019-02-07T21:01:13.250Z,99.90
2019-02-07T21:03:45.362Z,99.90
2019-02-07T21:06:18.743Z,99.90
2019-02-07T21:08:49.358Z,99.90
2019-02-07T21:11:19.566Z,99.90
2019-02-07T21:13:49.757Z,99.90
2019-02-07T21:16:19.979Z,99.90
2019-02-07T21:18:50.161Z,99.90
2019-02-07T21:21:20.613Z,99.90
2019-02-07T21:23:50.798Z,99.90
2019-02-07T21:26:21.015Z,99.90
2019-02-07T21:28:51.435Z,99.90
2019-02-07T21:31:21.649Z,99.90
2019-02-07T21:33:51.905Z,99.90
2019-02-07T21:36:22.355Z,99.90
2019-02-07T21:38:52.814Z,99.90
2019-02-07T21:41:22.994Z,99.90
2019-02-07T21:43:53.450Z,99.90
2019-02-07T21:46:23.649Z,99.90
2019-02-07T21:48:54.090Z,99.90
2019-02-07T21:51:24.454Z,99.90
2019-02-07T21:53:54.701Z,99.90
2019-02-07T21:56:24.894Z,99.90
2019-02-07T21:58:55.173Z,99.90
2019-02-07T22:01:25.372Z,99.90
2019-02-07T22:03:55.826Z,99.90
2019-02-07T22:06:26.015Z,99.90
2019-02-07T22:08:56.470Z,99.90
2019-02-07T22:11:26.891Z,99.90
2019-02-07T22:13:57.102Z,99.90
2019-02-07T22:16:27.295Z,99.90
2019-02-07T22:18:58.022Z,99.90
2019-02-07T22:21:28.219Z,99.90
2019-02-07T22:23:58.672Z,99.90
2019-02-07T22:26:29.102Z,99.90
2019-02-07T22:29:39.940Z,99.90
2019-02-07T22:32:14.064Z,99.90
2019-02-07T22:34:47.418Z,99.90
2019-02-07T22:40:23.614Z,99.90
2019-02-07T22:42:57.164Z,99.90
2019-02-07T22:45:30.892Z,99.90
2019-02-07T22:48:04.218Z,99.90
2019-02-07T22:50:35.884Z,99.90
2019-02-07T22:53:09.205Z,99.90
2019-02-07T22:55:43.389Z,99.90
2019-02-07T22:58:16.536Z,99.90
2019-02-07T23:01:06.672Z,99.90
2019-02-07T23:03:38.498Z,99.90
2019-02-07T23:06:11.262Z,99.90
2019-02-07T23:08:42.943Z,99.90
2019-02-07T23:11:14.710Z,99.90
2019-02-07T23:13:46.747Z,99.90
2019-02-07T23:16:21.904Z,99.90
2019-02-07T23:18:54.949Z,99.90
2019-02-07T23:21:27.338Z,99.90
2019-02-07T23:24:00.284Z,99.90
2019-02-07T23:26:31.887Z,99.90
2019-02-07T23:29:03.568Z,99.90
2019-02-07T23:31:35.419Z,99.90
2019-02-07T23:34:08.047Z,99.90
2019-02-07T23:36:39.708Z,99.90
2019-02-07T23:39:11.641Z,99.90
2019-02-07T23:41:43.174Z,99.90
2019-02-07T23:44:14.680Z,99.90
2019-02-07T23:46:46.278Z,99.90
2019-02-07T23:49:17.740Z,99.90
2019-02-07T23:51:48.733Z,99.90
2019-02-07T23:54:19.578Z,99.90
2019-02-07T23:56:50.081Z,99.90
2019-02-07T23:59:20.269Z,99.90
